Time;durP1;ratioP1;P1;durP2;ratioP2;P2;SDS_P1;SDS_P2;PMS_P1;PMS_P2;Temp;Humidity;BMP_temperature;BMP_pressure;BME280_temperature;BME280_humidity;BME280_pressure;Samples;Min_cycle;Max_cycle;Signal;HPM_P1;HPM_P2
2021/08/03 00:01:11;;;;;;;9.43;3.42;;;589.40;2048.00;;;;;;4953295;29;20019;-77
2021/08/03 00:03:59;;;;;;;14.88;3.67;;;589.40;2048.00;;;;;;4935779;29;20023;-76
2021/08/03 00:06:26;;;;;;;8.10;3.60;;;589.60;2022.40;;;;;;4952936;29;20354;-78
2021/08/03 00:08:57;;;;;;;7.35;3.47;;;589.60;2022.40;;;;;;4953025;29;20034;-77
2021/08/03 00:11:25;;;;;;;6.15;3.55;;;589.50;2022.40;;;;;;4949453;29;20557;-77
2021/08/03 00:13:52;;;;;;;5.07;3.10;;;589.50;2022.40;;;;;;4935861;29;20034;-77
2021/08/03 00:16:19;;;;;;;5.95;3.88;;;589.70;1996.80;;;;;;4953403;28;20078;-78
2021/08/03 00:18:45;;;;;;;8.00;3.67;;;589.70;1996.80;;;;;;4956341;28;20066;-78
2021/08/03 00:21:14;;;;;;;7.15;3.63;;;589.60;2022.40;;;;;;4957773;29;20440;-77
2021/08/03 00:23:45;;;;;;;6.75;3.67;;;589.60;2022.40;;;;;;4955389;29;20098;-77
2021/08/03 00:26:13;;;;;;;10.40;3.60;;;589.50;2022.40;;;;;;4940221;29;20082;-76
2021/08/03 00:28:39;;;;;;;7.07;4.28;;;589.50;1996.80;;;;;;4952487;29;20030;-77
2021/08/03 00:31:06;;;;;;;11.20;3.70;;;589.40;1996.80;;;;;;4940514;29;20114;-78
2021/08/03 00:33:32;;;;;;;7.88;3.67;;;589.40;2022.40;;;;;;4957187;29;20606;-81
2021/08/03 00:35:58;;;;;;;16.98;3.33;;;589.40;1996.80;;;;;;4956437;29;20059;-78
2021/08/03 00:38:24;;;;;;;5.45;3.35;;;589.60;1971.20;;;;;;4940432;29;20038;-77
2021/08/03 00:40:57;;;;;;;8.07;3.20;;;589.70;1945.60;;;;;;4956304;29;20027;-77
2021/08/03 00:43:23;;;;;;;5.30;3.35;;;589.60;1920.00;;;;;;4938158;29;20027;-79
2021/08/03 00:45:49;;;;;;;7.13;3.13;;;589.70;1894.40;;;;;;4939374;29;20030;-78
2021/08/03 00:48:15;;;;;;;8.23;3.00;;;589.70;1894.40;;;;;;4939290;29;20027;-77
2021/08/03 00:50:42;;;;;;;9.65;3.33;;;589.70;1894.40;;;;;;4954287;29;20054;-78
2021/08/03 00:53:08;;;;;;;6.32;2.85;;;589.70;1894.40;;;;;;4939855;29;20118;-77
2021/08/03 00:55:36;;;;;;;7.95;3.13;;;589.30;1868.80;;;;;;4940776;29;20121;-79
2021/08/03 00:58:03;;;;;;;4.88;3.20;;;614.40;1868.80;;;;;;4940640;29;20019;-78
2021/08/03 01:00:28;;;;;;;6.03;3.28;;;614.40;1868.80;;;;;;4956411;29;20500;-78
2021/08/03 01:02:54;;;;;;;6.95;3.10;;;614.40;1868.80;;;;;;4938756;29;20031;-79
2021/08/03 01:05:22;;;;;;;3.88;2.45;;;614.60;1868.80;;;;;;4938572;29;20418;-79
2021/08/03 01:07:56;;;;;;;3.70;2.65;;;614.40;1868.80;;;;;;4956000;29;20030;-79
2021/08/03 01:10:48;;;;;;;5.50;3.00;;;589.70;1868.80;;;;;;4938409;29;20122;-79
2021/08/03 01:13:34;;;;;;;6.32;2.72;;;589.70;1868.80;;;;;;4956017;29;20051;-78
2021/08/03 01:16:03;;;;;;;9.38;3.78;;;589.70;1868.80;;;;;;4936502;29;20394;-79
2021/08/03 01:18:42;;;;;;;11.77;3.33;;;589.70;1868.80;;;;;;4938377;29;20047;-78
2021/08/03 01:21:35;;;;;;;6.55;2.92;;;589.70;1894.40;;;;;;4936706;29;20039;-78
2021/08/03 01:24:26;;;;;;;6.70;3.83;;;589.60;1894.40;;;;;;4938872;29;20507;-81
2021/08/03 01:27:17;;;;;;;7.70;3.42;;;589.30;1920.00;;;;;;4956423;29;20481;-78
2021/08/03 01:29:44;;;;;;;7.35;3.40;;;589.30;1920.00;;;;;;4937906;29;20023;-78
2021/08/03 01:32:11;;;;;;;8.02;3.40;;;589.30;1920.00;;;;;;4955750;29;20020;-77
2021/08/03 01:34:41;;;;;;;10.68;3.92;;;589.00;1920.00;;;;;;4937632;29;20035;-78
2021/08/03 01:37:08;;;;;;;5.63;3.13;;;589.00;1945.60;;;;;;4955750;29;20106;-79
2021/08/03 01:39:43;;;;;;;6.03;3.50;;;588.90;1971.20;;;;;;4938202;29;20035;-78
2021/08/03 01:42:11;;;;;;;6.40;4.03;;;588.90;1971.20;;;;;;4955438;29;20090;-78
2021/08/03 01:44:37;;;;;;;7.90;4.28;;;564.10;2022.40;;;;;;4955211;29;20035;-77
2021/08/03 01:47:05;;;;;;;10.02;4.07;;;564.00;2048.00;;;;;;4955230;29;20026;-79
2021/08/03 01:49:36;;;;;;;11.85;4.13;;;564.10;2048.00;;;;;;4938130;29;20032;-80
2021/08/03 01:52:06;;;;;;;7.13;3.28;;;564.10;2022.40;;;;;;4955530;29;20023;-78
2021/08/03 01:54:33;;;;;;;6.18;3.60;;;564.10;2022.40;;;;;;4955091;29;20078;-80
2021/08/03 01:56:59;;;;;;;7.25;4.15;;;564.10;2022.40;;;;;;4938140;29;20015;-79
2021/08/03 01:59:26;;;;;;;7.72;4.13;;;564.00;2022.40;;;;;;4938189;29;20378;-78
2021/08/03 02:01:53;;;;;;;8.43;4.72;;;564.00;2048.00;;;;;;4954955;29;20019;-78
2021/08/03 02:04:20;;;;;;;7.97;3.80;;;563.80;2073.60;;;;;;4937591;29;20062;-77
2021/08/03 02:06:48;;;;;;;5.53;3.85;;;563.60;2073.60;;;;;;4937394;29;20020;-78
2021/08/03 02:09:15;;;;;;;8.15;4.45;;;563.60;2073.60;;;;;;4937768;29;20078;-77
2021/08/03 02:11:41;;;;;;;8.60;3.90;;;563.70;2073.60;;;;;;4932576;29;20072;-79
2021/08/03 02:14:08;;;;;;;7.50;3.85;;;564.00;2048.00;;;;;;4937781;29;20432;-80
2021/08/03 02:16:34;;;;;;;8.98;5.20;;;564.00;2022.40;;;;;;4937660;29;20158;-78
2021/08/03 02:19:02;;;;;;;7.53;4.25;;;564.00;1996.80;;;;;;4937890;29;20126;-79
2021/08/03 02:21:28;;;;;;;11.73;4.93;;;564.00;1996.80;;;;;;4937859;29;20146;-80
2021/08/03 02:23:54;;;;;;;10.00;5.25;;;564.00;2022.40;;;;;;4937539;29;20182;-78
2021/08/03 02:26:20;;;;;;;6.05;4.00;;;564.00;1996.80;;;;;;4954652;29;20551;-79
2021/08/03 02:28:46;;;;;;;7.32;4.57;;;564.00;1996.80;;;;;;4954648;29;20019;-79
2021/08/03 02:31:21;;;;;;;7.82;5.30;;;564.00;1996.80;;;;;;4954416;29;20030;-79
2021/08/03 02:34:23;;;;;;;7.82;4.38;;;588.80;1996.80;;;;;;4954801;29;20093;-79
2021/08/03 02:36:53;;;;;;;8.50;4.70;;;564.10;1996.80;;;;;;4935006;29;20046;-80
2021/08/03 02:39:21;;;;;;;5.97;4.25;;;564.00;2022.40;;;;;;4954213;28;20055;-79
2021/08/03 02:41:49;;;;;;;8.63;4.90;;;563.90;2022.40;;;;;;4954058;29;20030;-79
2021/08/03 02:44:15;;;;;;;7.95;4.45;;;563.70;2022.40;;;;;;4955306;28;20527;-79
2021/08/03 02:46:42;;;;;;;6.78;4.72;;;563.90;2048.00;;;;;;4937333;29;20031;-79
2021/08/03 02:49:16;;;;;;;6.07;4.43;;;564.00;2022.40;;;;;;4951700;29;20027;-79
2021/08/03 02:51:42;;;;;;;6.68;4.85;;;564.00;2022.40;;;;;;4953624;29;20042;-79
2021/08/03 02:54:23;;;;;;;10.27;4.97;;;564.10;2022.40;;;;;;4968972;23;20049;-79
2021/08/03 02:59:36;;;;;;;7.75;4.78;;;564.00;1996.80;;;;;;5058303;23;20531;-80
2021/08/03 03:02:06;;;;;;;11.00;5.05;;;564.00;2022.40;;;;;;4957013;28;20034;-81
2021/08/03 03:04:58;;;;;;;10.13;4.90;;;564.00;1996.80;;;;;;4956850;28;20026;-79
2021/08/03 03:07:31;;;;;;;6.97;5.03;;;564.00;1996.80;;;;;;4906489;29;20079;-80
2021/08/03 03:09:58;;;;;;;8.55;4.15;;;564.00;1996.80;;;;;;4913921;29;20032;-79
2021/08/03 03:12:26;;;;;;;9.70;4.65;;;564.00;1996.80;;;;;;4890172;29;20044;-79
2021/08/03 03:14:55;;;;;;;6.75;4.82;;;563.80;2022.40;;;;;;4897903;29;20086;-81
2021/08/03 03:17:22;;;;;;;8.60;5.60;;;563.80;2022.40;;;;;;4897855;29;20505;-80
2021/08/03 03:19:50;;;;;;;7.50;4.60;;;563.90;1996.80;;;;;;4913713;29;20039;-80
2021/08/03 03:22:17;;;;;;;8.27;5.55;;;563.70;2022.40;;;;;;4914036;29;20039;-81
2021/08/03 03:24:45;;;;;;;8.52;4.47;;;563.90;1996.80;;;;;;4898145;29;20131;-78
2021/08/03 03:27:11;;;;;;;7.53;5.18;;;563.70;2022.40;;;;;;4913678;29;20028;-81
2021/08/03 03:29:38;;;;;;;9.73;4.55;;;563.70;2022.40;;;;;;4914662;29;20035;-82
2021/08/03 03:32:05;;;;;;;7.78;4.63;;;563.70;2022.40;;;;;;4915505;29;20406;-82
2021/08/03 03:34:32;;;;;;;10.23;4.78;;;563.70;2022.40;;;;;;4898483;29;20059;-80
2021/08/03 03:36:59;;;;;;;7.45;4.63;;;563.70;2022.40;;;;;;4913185;29;20478;-79
2021/08/03 03:39:27;;;;;;;6.53;4.60;;;564.10;1996.80;;;;;;4898520;29;20040;-80
2021/08/03 03:41:55;;;;;;;8.88;4.97;;;564.00;1996.80;;;;;;4914191;29;20055;-79
2021/08/03 03:44:21;;;;;;;12.15;4.85;;;564.10;1971.20;;;;;;4932546;28;20455;-83
2021/08/03 03:47:12;;;;;;;7.35;4.65;;;564.10;1996.80;;;;;;4973824;28;20027;-83
2021/08/03 03:49:45;;;;;;;9.40;4.35;;;563.90;2022.40;;;;;;4972915;28;20030;-77
2021/08/03 03:52:12;;;;;;;9.25;4.63;;;564.00;1996.80;;;;;;4972198;28;20023;-82
2021/08/03 03:54:45;;;;;;;6.57;4.35;;;588.80;1971.20;;;;;;4956219;28;20027;-83
2021/08/03 03:57:14;;;;;;;8.90;4.88;;;588.80;1971.20;;;;;;4954891;28;20114;-83
2021/08/03 03:59:43;;;;;;;10.40;5.47;;;588.90;1945.60;;;;;;4956284;28;20051;-83
2021/08/03 04:02:18;;;;;;;9.88;4.95;;;588.90;1945.60;;;;;;4955089;28;20494;-82
2021/08/03 04:04:46;;;;;;;9.65;5.15;;;588.90;1971.20;;;;;;4957026;28;20431;-83
2021/08/03 04:07:12;;;;;;;11.73;5.13;;;589.10;1945.60;;;;;;4956700;28;20481;-81
2021/08/03 04:09:38;;;;;;;9.48;4.63;;;589.10;1971.20;;;;;;4955970;28;20103;-82
2021/08/03 04:12:05;;;;;;;15.55;4.40;;;589.00;1945.60;;;;;;4973189;28;20101;-81
2021/08/03 04:14:31;;;;;;;6.65;4.32;;;589.10;1971.20;;;;;;4955478;28;20089;-82
2021/08/03 04:16:57;;;;;;;6.72;4.38;;;588.90;1945.60;;;;;;4956188;28;20093;-81
2021/08/03 04:19:23;;;;;;;11.30;4.70;;;588.90;1945.60;;;;;;4955915;28;20432;-82
2021/08/03 04:21:50;;;;;;;5.60;3.83;;;588.80;1971.20;;;;;;4956463;28;20034;-82
2021/08/03 04:24:17;;;;;;;5.93;4.20;;;588.90;1971.20;;;;;;4957211;28;20081;-81
2021/08/03 04:26:47;;;;;;;9.27;4.13;;;588.80;1996.80;;;;;;4956638;28;20031;-82
2021/08/03 04:29:13;;;;;;;8.10;4.35;;;564.10;1971.20;;;;;;4957361;28;20046;-83
2021/08/03 04:31:39;;;;;;;6.32;4.55;;;564.10;1996.80;;;;;;4974094;28;20384;-82
2021/08/03 04:34:05;;;;;;;14.30;5.10;;;588.80;1971.20;;;;;;4957123;28;20039;-82
2021/08/03 04:36:31;;;;;;;11.00;5.03;;;564.10;1971.20;;;;;;4973870;28;20089;-82
2021/08/03 04:38:57;;;;;;;8.32;5.05;;;564.10;1996.80;;;;;;4973561;28;20039;-81
2021/08/03 04:41:23;;;;;;;8.85;4.22;;;564.10;1996.80;;;;;;4957001;28;20035;-81
2021/08/03 04:43:49;;;;;;;7.00;4.32;;;588.90;1971.20;;;;;;4973530;28;20035;-78
2021/08/03 04:46:16;;;;;;;13.20;4.40;;;588.90;1971.20;;;;;;4974180;28;20168;-79
2021/08/03 04:48:41;;;;;;;14.13;4.95;;;589.00;1945.60;;;;;;4973882;28;20046;-83
2021/08/03 04:51:07;;;;;;;15.45;4.40;;;589.10;1945.60;;;;;;4973235;28;20404;-80
2021/08/03 04:53:33;;;;;;;7.35;4.75;;;589.10;1945.60;;;;;;4973127;28;20098;-77
2021/08/03 04:55:59;;;;;;;8.10;4.82;;;589.20;1920.00;;;;;;4956215;28;20122;-82
2021/08/03 04:58:25;;;;;;;8.63;4.55;;;589.40;1920.00;;;;;;4973054;28;20494;-77
2021/08/03 05:00:52;;;;;;;7.68;4.75;;;589.50;1920.00;;;;;;4973858;28;20042;-81
2021/08/03 05:03:18;;;;;;;7.18;4.78;;;589.60;1894.40;;;;;;4974344;28;20029;-82
2021/08/03 05:05:44;;;;;;;5.85;4.00;;;589.70;1894.40;;;;;;4977400;28;20092;-82
2021/08/03 05:08:10;;;;;;;7.38;3.90;;;589.70;1868.80;;;;;;4977062;28;20469;-78
2021/08/03 05:10:36;;;;;;;8.55;4.45;;;589.70;1894.40;;;;;;4976741;28;20045;-79
2021/08/03 05:13:02;;;;;;;11.35;5.45;;;589.60;1945.60;;;;;;4962520;28;20476;-77
2021/08/03 05:15:28;;;;;;;8.60;4.43;;;589.70;1920.00;;;;;;4996296;28;20085;-76
2021/08/03 05:17:54;;;;;;;7.00;4.35;;;589.70;1920.00;;;;;;4966606;28;20030;-77
2021/08/03 05:20:20;;;;;;;9.88;4.35;;;589.70;1894.40;;;;;;4976682;28;20023;-77
2021/08/03 05:22:46;;;;;;;6.85;4.25;;;614.50;1920.00;;;;;;4976503;28;20105;-77
2021/08/03 05:25:13;;;;;;;7.20;4.22;;;614.50;1894.40;;;;;;4976742;28;20058;-79
2021/08/03 05:27:40;;;;;;;8.10;4.75;;;614.60;1920.00;;;;;;4976399;28;20444;-78
2021/08/03 05:30:06;;;;;;;10.82;5.28;;;614.50;1945.60;;;;;;4976675;28;20027;-77
2021/08/03 05:32:32;;;;;;;12.32;5.43;;;614.50;1945.60;;;;;;4989112;28;20031;-80
2021/08/03 05:34:57;;;;;;;8.75;4.82;;;614.50;1945.60;;;;;;4995954;28;20419;-78
2021/08/03 05:37:23;;;;;;;10.10;4.63;;;614.50;1971.20;;;;;;4978501;28;20050;-79
2021/08/03 05:39:49;;;;;;;8.75;5.20;;;614.60;1971.20;;;;;;4995930;28;20029;-78
2021/08/03 05:42:15;;;;;;;7.05;5.00;;;614.60;1945.60;;;;;;4995746;28;20496;-78
2021/08/03 05:44:40;;;;;;;7.28;4.72;;;614.60;1920.00;;;;;;4995684;28;20046;-77
2021/08/03 05:47:06;;;;;;;13.23;4.93;;;614.80;1920.00;;;;;;4979346;28;20022;-78
2021/08/03 05:49:32;;;;;;;9.20;4.70;;;614.80;1894.40;;;;;;4958937;28;20031;-81
2021/08/03 05:52:00;;;;;;;4.80;3.70;;;614.80;1894.40;;;;;;4976131;28;20030;-79
2021/08/03 05:54:26;;;;;;;5.93;3.75;;;614.90;1868.80;;;;;;4976060;28;20034;-75
2021/08/03 05:56:52;;;;;;;6.97;4.10;;;614.80;1894.40;;;;;;4975978;28;20037;-77
2021/08/03 05:59:17;;;;;;;12.25;4.40;;;614.90;1920.00;;;;;;4975838;28;20043;-75
2021/08/03 06:01:44;;;;;;;6.68;4.25;;;615.00;1894.40;;;;;;4975946;28;20487;-78
2021/08/03 06:04:10;;;;;;;7.70;5.00;;;615.20;1868.80;;;;;;4975553;28;20080;-78
2021/08/03 06:06:41;;;;;;;8.32;4.25;;;615.20;1868.80;;;;;;4975764;28;20035;-76
2021/08/03 06:09:11;;;;;;;6.13;3.60;;;640.10;1868.80;;;;;;4975669;28;20611;-78
2021/08/03 06:11:49;;;;;;;9.45;3.83;;;640.10;1868.80;;;;;;4958211;28;20035;-77
2021/08/03 06:14:28;;;;;;;6.93;3.70;;;640.20;1843.20;;;;;;4988068;28;20062;-75
2021/08/03 06:16:55;;;;;;;5.18;3.65;;;615.30;1843.20;;;;;;4995011;28;20472;-76
2021/08/03 06:19:25;;;;;;;7.90;3.83;;;640.40;1817.60;;;;;;4977526;28;20034;-76
2021/08/03 06:21:51;;;;;;;6.95;3.28;;;640.40;1843.20;;;;;;4994954;28;20022;-77
2021/08/03 06:24:17;;;;;;;6.13;2.53;;;640.40;1766.40;;;;;;4994734;28;20423;-74
2021/08/03 06:26:45;;;;;;;6.25;2.85;;;640.40;1766.40;;;;;;4995004;28;20018;-77
2021/08/03 06:29:12;;;;;;;6.20;3.00;;;640.60;1792.00;;;;;;4994782;28;20100;-78
2021/08/03 06:31:38;;;;;;;4.20;2.80;;;640.70;1766.40;;;;;;4989756;28;20019;-79
2021/08/03 06:34:05;;;;;;;6.15;3.30;;;665.60;1792.00;;;;;;4994777;28;20030;-78
2021/08/03 06:36:31;;;;;;;9.35;2.72;;;665.70;1792.00;;;;;;4994674;28;20030;-74
2021/08/03 06:38:56;;;;;;;10.43;2.88;;;665.70;1766.40;;;;;;4994570;28;20049;-76
2021/08/03 06:41:38;;;;;;;7.53;3.15;;;665.80;1740.80;;;;;;4994778;28;20077;-74
2021/08/03 06:44:22;;;;;;;6.65;2.75;;;665.90;1740.80;;;;;;4982933;28;20114;-78
2021/08/03 06:46:52;;;;;;;7.95;2.75;;;665.90;1715.20;;;;;;4975194;28;20094;-78
2021/08/03 06:49:19;;;;;;;8.82;2.75;;;665.90;1715.20;;;;;;4974985;28;20117;-77
2021/08/03 06:51:47;;;;;;;11.05;3.55;;;666.00;1715.20;;;;;;4974923;28;20071;-79
2021/08/03 06:54:13;;;;;;;12.07;2.90;;;666.20;1740.80;;;;;;4974452;28;20035;-76
2021/08/03 06:56:48;;;;;;;5.40;2.83;;;666.30;1715.20;;;;;;4974432;28;20027;-78
2021/08/03 06:59:22;;;;;;;6.70;2.60;;;666.30;1715.20;;;;;;4973986;28;20497;-76
2021/08/03 07:02:01;;;;;;;8.30;2.85;;;666.50;1664.00;;;;;;4974399;28;20397;-78
2021/08/03 07:04:47;;;;;;;8.80;2.40;;;666.50;1689.60;;;;;;4965828;28;20026;-77
2021/08/03 07:07:13;;;;;;;;;;;666.30;1664.00;;;;;;4974756;28;20015;-78
2021/08/03 07:09:43;;;;;;;4.07;2.65;;;666.50;1689.60;;;;;;4974231;28;19929;-78
2021/08/03 07:12:13;;;;;;;8.95;3.13;;;666.50;1638.40;;;;;;4974538;28;20027;-78
2021/08/03 07:14:39;;;;;;;6.35;2.67;;;691.20;1638.40;;;;;;4990150;28;20046;-76
2021/08/03 07:17:06;;;;;;;4.38;2.47;;;691.30;1689.60;;;;;;4993930;28;20014;-77
2021/08/03 07:19:33;;;;;;;6.93;3.00;;;691.30;1638.40;;;;;;4978806;28;20026;-76
2021/08/03 07:21:59;;;;;;;5.10;2.67;;;691.30;1638.40;;;;;;4973831;28;20019;-76
2021/08/03 07:24:27;;;;;;;3.83;2.35;;;691.50;1587.20;;;;;;4973792;28;20074;-75
2021/08/03 07:26:53;;;;;;;7.70;2.38;;;691.40;1561.60;;;;;;4973557;28;20014;-75
2021/08/03 07:29:19;;;;;;;3.58;1.95;;;691.40;1587.20;;;;;;4973631;28;20477;-78
2021/08/03 07:31:47;;;;;;;3.38;2.15;;;691.40;1561.60;;;;;;4973918;28;20030;-74
2021/08/03 07:34:12;;;;;;;5.47;2.17;;;691.50;1612.80;;;;;;4973860;28;20042;-77
2021/08/03 07:36:38;;;;;;;6.15;2.13;;;691.70;1587.20;;;;;;4956466;28;20386;-77
2021/08/03 07:39:06;;;;;;;7.72;2.60;;;691.70;1561.60;;;;;;4973786;28;20055;-76
2021/08/03 07:41:34;;;;;;;7.15;2.53;;;691.80;1612.80;;;;;;4956406;28;20089;-77
2021/08/03 07:44:00;;;;;;;3.92;2.10;;;692.00;1510.40;;;;;;4975010;28;20030;-78
2021/08/03 07:46:27;;;;;;;4.68;2.28;;;692.10;1459.20;;;;;;4973944;28;20027;-77
2021/08/03 07:48:55;;;;;;;3.45;2.08;;;716.90;1510.40;;;;;;4973751;28;20011;-74
2021/08/03 07:51:21;;;;;;;4.30;2.15;;;717.00;1510.40;;;;;;4973752;28;20023;-74
2021/08/03 07:53:48;;;;;;;5.38;2.45;;;717.00;1536.00;;;;;;4973498;28;20479;-75
2021/08/03 07:56:15;;;;;;;8.07;2.97;;;717.00;1459.20;;;;;;4973612;28;20031;-77
2021/08/03 07:58:41;;;;;;;7.22;2.10;;;717.10;1484.80;;;;;;4973769;28;20529;-75
2021/08/03 08:01:08;;;;;;;6.22;2.20;;;717.10;1459.20;;;;;;4974115;28;20038;-76
2021/08/03 08:03:35;;;;;;;5.78;3.13;;;716.90;1510.40;;;;;;4974156;28;20015;-78
2021/08/03 08:06:03;;;;;;;9.35;3.60;;;717.00;1433.60;;;;;;4974114;28;20030;-79
2021/08/03 08:08:29;;;;;;;6.97;3.60;;;717.00;1510.40;;;;;;4955978;28;20122;-79
2021/08/03 08:10:55;;;;;;;6.60;3.08;;;717.10;1459.20;;;;;;4974149;28;20093;-78
2021/08/03 08:13:20;;;;;;;5.50;2.92;;;717.30;1408.00;;;;;;4973857;28;20027;-77
2021/08/03 08:15:46;;;;;;;6.45;2.90;;;717.40;1408.00;;;;;;4973666;28;20145;-78
2021/08/03 08:18:13;;;;;;;6.88;3.15;;;717.20;1408.00;;;;;;4973937;28;20073;-77
2021/08/03 08:20:42;;;;;;;4.95;3.13;;;717.40;1382.40;;;;;;4973856;28;20027;-78
2021/08/03 08:23:10;;;;;;;2.92;2.00;;;717.50;1382.40;;;;;;4955522;28;20469;-75
2021/08/03 08:25:36;;;;;;;5.38;2.28;;;717.60;1433.60;;;;;;4973527;28;20038;-77
2021/08/03 08:28:02;;;;;;;4.63;2.60;;;742.50;1459.20;;;;;;4973349;28;20082;-78
2021/08/03 08:30:28;;;;;;;4.38;2.60;;;742.50;1433.60;;;;;;4973201;28;20492;-78
2021/08/03 08:32:54;;;;;;;4.82;2.33;;;717.70;1433.60;;;;;;4973351;28;20061;-77
2021/08/03 08:35:20;;;;;;;4.07;2.78;;;742.40;1408.00;;;;;;4973328;28;20031;-75
2021/08/03 08:37:46;;;;;;;4.88;2.72;;;742.40;1382.40;;;;;;4973328;28;20548;-77
2021/08/03 08:40:13;;;;;;;6.45;2.38;;;742.50;1382.40;;;;;;4976640;28;20025;-77
2021/08/03 08:42:38;;;;;;;5.90;2.63;;;742.50;1382.40;;;;;;4977052;28;20046;-77
2021/08/03 08:45:06;;;;;;;4.30;2.22;;;742.50;1408.00;;;;;;4978192;28;20055;-77
2021/08/03 08:47:32;;;;;;;8.57;2.97;;;742.50;1382.40;;;;;;4976837;28;20019;-79
2021/08/03 08:50:07;;;;;;;8.43;4.82;;;742.50;1408.00;;;;;;4976922;28;20362;-78
2021/08/03 08:52:37;;;;;;;37.80;19.90;;;742.60;1408.00;;;;;;4959562;28;20444;-78
2021/08/03 08:55:05;;;;;;;24.60;13.82;;;742.60;1408.00;;;;;;4963929;28;20105;-78
2021/08/03 08:57:31;;;;;;;15.88;9.48;;;742.60;1408.00;;;;;;4959131;28;20043;-78
2021/08/03 08:59:57;;;;;;;13.07;6.97;;;742.80;1408.00;;;;;;4976744;28;20029;-76
2021/08/03 09:02:39;;;;;;;10.32;5.70;;;742.80;1356.80;;;;;;4976223;28;20393;-76
2021/08/03 09:05:05;;;;;;;6.03;2.42;;;742.90;1382.40;;;;;;4974495;28;20050;-75
2021/08/03 09:07:31;;;;;;;5.00;2.38;;;742.80;1356.80;;;;;;4976466;28;20093;-77
2021/08/03 09:09:57;;;;;;;11.00;2.22;;;742.60;1433.60;;;;;;4976307;28;20506;-77
2021/08/03 09:12:35;;;;;;;7.50;2.30;;;742.80;1408.00;;;;;;4968392;28;20030;-76
2021/08/03 09:15:01;;;;;;;9.05;3.97;;;742.90;1382.40;;;;;;4976670;28;20035;-77
2021/08/03 09:17:29;;;;;;;4.75;3.10;;;742.90;1382.40;;;;;;4976766;28;20031;-75
2021/08/03 09:19:55;;;;;;;10.32;2.92;;;742.90;1356.80;;;;;;4976709;28;20041;-75
2021/08/03 09:22:24;;;;;;;6.25;2.30;;;742.90;1356.80;;;;;;4976545;28;20031;-75
2021/08/03 09:24:52;;;;;;;6.18;2.40;;;742.70;1408.00;;;;;;4976437;28;20023;-77
2021/08/03 09:27:39;;;;;;;4.35;2.47;;;743.00;1408.00;;;;;;4976039;28;20519;-75
2021/08/03 09:30:27;;;;;;;3.22;2.28;;;743.20;1408.00;;;;;;4976018;28;20026;-75
2021/08/03 09:32:53;;;;;;;4.97;2.58;;;743.30;1356.80;;;;;;4972559;28;20046;-75
2021/08/03 09:35:21;;;;;;;4.50;2.50;;;768.00;1356.80;;;;;;4975828;28;20059;-76
2021/08/03 09:37:47;;;;;;;10.45;2.60;;;768.10;1382.40;;;;;;4976445;28;20023;-75
2021/08/03 09:40:22;;;;;;;4.63;2.35;;;743.10;1331.20;;;;;;4976219;28;20514;-77
2021/08/03 09:43:00;;;;;;;6.60;2.83;;;743.30;1356.80;;;;;;4976127;28;20047;-75
2021/08/03 09:45:27;;;;;;;4.18;2.53;;;768.10;1356.80;;;;;;4968789;28;20089;-75
2021/08/03 09:48:14;;;;;;;4.95;2.38;;;768.10;1331.20;;;;;;4976226;28;20019;-77
2021/08/03 09:51:01;;;;;;;8.73;2.80;;;768.40;1305.60;;;;;;4975718;28;20031;-77
2021/08/03 09:53:49;;;;;;;6.82;2.60;;;768.60;1331.20;;;;;;4973166;28;20018;-76
2021/08/03 09:56:26;;;;;;;4.75;2.72;;;768.60;1280.00;;;;;;4974094;28;20113;-75
2021/08/03 09:59:04;;;;;;;4.25;2.50;;;768.80;1356.80;;;;;;4973603;28;20051;-76
2021/08/03 10:01:39;;;;;;;7.18;4.55;;;768.80;1356.80;;;;;;4968970;28;20027;-77
2021/08/03 10:04:07;;;;;;;4.07;3.03;;;768.80;1305.60;;;;;;4976049;28;20373;-76
2021/08/03 10:06:34;;;;;;;6.35;3.38;;;793.60;1280.00;;;;;;4975843;28;20089;-77
2021/08/03 10:09:00;;;;;;;6.47;3.40;;;793.70;1280.00;;;;;;4957814;28;20374;-75
2021/08/03 10:11:26;;;;;;;6.43;3.33;;;793.90;1280.00;;;;;;4975387;28;20027;-76
2021/08/03 10:13:53;;;;;;;7.60;4.35;;;794.00;1254.40;;;;;;4976798;28;20526;-77
2021/08/03 10:16:20;;;;;;;14.98;11.98;;;794.00;1254.40;;;;;;4975414;28;20026;-77
2021/08/03 10:18:57;;;;;;;32.20;28.08;;;794.20;1254.40;;;;;;4975068;28;20029;-78
2021/08/03 10:21:34;;;;;;;24.40;19.38;;;794.20;1228.80;;;;;;4974553;28;20038;-78
2021/08/03 10:24:14;;;;;;;13.00;10.40;;;794.40;1228.80;;;;;;4975587;28;20476;-76
2021/08/03 10:26:40;;;;;;;11.77;7.40;;;794.50;1203.20;;;;;;4975538;28;20469;-82
2021/08/03 10:29:26;;;;;;;7.75;6.10;;;819.30;1228.80;;;;;;4975362;28;20038;-77
2021/08/03 10:31:55;;;;;;;8.90;5.70;;;819.60;1254.40;;;;;;4970269;28;20030;-76
2021/08/03 10:34:43;;;;;;;9.80;5.72;;;819.60;1254.40;;;;;;4957845;28;20065;-77
2021/08/03 10:37:09;;;;;;;8.02;5.03;;;819.60;1177.60;;;;;;4975238;28;20495;-77
2021/08/03 10:40:07;;;;;;;8.23;6.00;;;819.60;1203.20;;;;;;4975186;28;20542;-77
2021/08/03 10:42:33;;;;;;;9.85;5.50;;;819.80;1177.60;;;;;;4934503;29;20040;-78
2021/08/03 10:45:01;;;;;;;7.07;6.00;;;819.80;1203.20;;;;;;4951961;29;20440;-76
2021/08/03 10:47:33;;;;;;;8.57;6.13;;;819.80;1177.60;;;;;;4953636;29;20027;-77
2021/08/03 10:50:01;;;;;;;9.25;6.20;;;819.80;1203.20;;;;;;4953772;29;20024;-76
2021/08/03 10:52:45;;;;;;;7.70;4.82;;;820.00;1177.60;;;;;;4953440;29;20448;-77
2021/08/03 10:55:33;;;;;;;5.13;4.05;;;819.80;1177.60;;;;;;4953361;29;20045;-78
2021/08/03 10:58:13;;;;;;;6.78;5.10;;;819.80;1177.60;;;;;;4953298;29;20043;-77
2021/08/03 11:00:56;;;;;;;5.85;4.47;;;820.10;1177.60;;;;;;4936889;29;20163;-76
2021/08/03 11:03:41;;;;;;;10.00;4.95;;;820.10;1203.20;;;;;;4934360;29;20035;-77
2021/08/03 11:06:06;;;;;;;6.30;4.40;;;844.80;1203.20;;;;;;4934259;29;20132;-82
2021/08/03 11:08:34;;;;;;;5.78;4.40;;;844.80;1177.60;;;;;;4934111;29;20206;-80
2021/08/03 11:11:27;;;;;;;5.78;4.65;;;845.40;1126.40;;;;;;4934207;29;20032;-82
2021/08/03 11:14:04;;;;;;;6.82;4.13;;;845.60;1126.40;;;;;;4923582;29;20126;-77
2021/08/03 11:16:30;;;;;;;8.80;4.55;;;870.60;1100.80;;;;;;4927464;29;20054;-81
2021/08/03 11:19:00;;;;;;;8.35;5.13;;;871.00;1100.80;;;;;;4949885;29;20040;-81
2021/08/03 11:21:28;;;;;;;7.18;4.60;;;871.10;1049.60;;;;;;4953350;29;20067;-78
2021/08/03 11:23:56;;;;;;;6.93;4.90;;;896.40;998.40;;;;;;4953155;29;20031;-81
2021/08/03 11:26:24;;;;;;;8.27;4.43;;;871.20;1049.60;;;;;;4953135;29;20031;-80
2021/08/03 11:29:01;;;;;;;11.32;5.50;;;896.00;1049.60;;;;;;4952964;29;20035;-80
2021/08/03 11:31:43;;;;;;;6.25;4.57;;;871.20;1049.60;;;;;;4953095;29;20497;-80
2021/08/03 11:34:10;;;;;;;7.43;5.53;;;896.00;1075.20;;;;;;4936926;29;20039;-82
2021/08/03 11:36:37;;;;;;;7.20;4.80;;;870.90;1075.20;;;;;;4946997;29;20035;-82
2021/08/03 11:39:22;;;;;;;7.72;4.22;;;870.90;1075.20;;;;;;4953063;29;20449;-81
2021/08/03 11:41:50;;;;;;;10.90;4.70;;;871.10;1126.40;;;;;;4943257;29;20031;-80
2021/08/03 11:44:17;;;;;;;8.45;5.18;;;871.10;1049.60;;;;;;4933298;29;20114;-82
2021/08/03 11:46:48;;;;;;;7.20;4.90;;;870.90;1075.20;;;;;;4917749;29;20489;-82
2021/08/03 11:49:14;;;;;;;7.32;4.85;;;871.20;1024.00;;;;;;4917635;29;20035;-81
2021/08/03 11:51:49;;;;;;;5.72;3.97;;;871.00;1049.60;;;;;;4948723;28;20042;-81
2021/08/03 11:54:17;;;;;;;6.80;4.68;;;871.00;1100.80;;;;;;4973940;28;20030;-82
2021/08/03 11:56:44;;;;;;;5.70;4.15;;;871.10;1049.60;;;;;;4956589;28;20034;-83
2021/08/03 11:59:42;;;;;;;7.25;4.60;;;871.00;1100.80;;;;;;4956691;28;20457;-81
2021/08/03 12:02:08;;;;;;;7.05;4.15;;;871.00;1049.60;;;;;;4957147;28;20050;-82
2021/08/03 12:04:34;;;;;;;8.32;4.63;;;870.90;1049.60;;;;;;4957043;28;20085;-82
2021/08/03 12:07:00;;;;;;;7.95;4.28;;;871.20;1049.60;;;;;;4974313;28;20420;-82
2021/08/03 12:09:26;;;;;;;6.30;4.05;;;896.10;998.40;;;;;;4974302;28;20113;-82
2021/08/03 12:12:15;;;;;;;7.32;4.45;;;871.20;972.80;;;;;;4974116;28;20045;-81
2021/08/03 12:14:41;;;;;;;9.88;4.38;;;870.90;1024.00;;;;;;4960466;28;20038;-80
2021/08/03 12:17:25;;;;;;;7.47;4.10;;;870.90;1024.00;;;;;;4960489;28;20101;-83
2021/08/03 12:19:51;;;;;;;8.80;4.20;;;871.10;1049.60;;;;;;4978097;28;20034;-83
2021/08/03 12:22:30;;;;;;;6.88;4.07;;;870.70;1100.80;;;;;;4960732;28;20035;-78
2021/08/03 12:25:00;;;;;;;6.55;4.40;;;871.20;1024.00;;;;;;4977653;28;20051;-80
2021/08/03 12:27:26;;;;;;;8.20;4.72;;;896.10;1024.00;;;;;;4959908;28;20035;-81
2021/08/03 12:29:52;;;;;;;5.22;4.05;;;896.90;998.40;;;;;;4960082;28;20210;-81
2021/08/03 12:32:43;;;;;;;7.07;4.22;;;896.90;1024.00;;;;;;4961634;28;20042;-79